Shiner, Texas
Current Conditions -  °F | °C
As of 7:55 PM on Friday 21 Nov 2014 (Local Time) from KT20 Reporting Station
Broken Clouds Broken Clouds  
Wind Chill: 70°   Ceiling: 1600
Heat Index: 70°   Visibility: 10mi
Dew Point: 67°   Wind: 15mph
Humidity: 89%   Direction: 150°SSE
Pressure: 30.05"   Gusts: 20mph
Location:  29.43°N, 97.17°W
Report Text: KT20 220155Z AUTO 15013G17KT 10SM BKN016 BKN037 21/19 A3005 RMK AO2 LTG DSNT NW T02110192
Loading
Personal Weather Stations






























Interactive Weather Map New forecast layout! Learn more

10-Day Weather Forecast

Advertisements
Track Severe Weather on mobile